createdAt,value
2022-08-08T00:01:21.199Z,16.94
2022-08-08T00:04:18.619Z,16.88
2022-08-08T00:07:08.908Z,16.67
2022-08-08T00:09:47.805Z,16.74
2022-08-08T00:12:29.642Z,16.64
2022-08-08T00:15:17.722Z,16.69
2022-08-08T00:18:03.986Z,16.59
2022-08-08T00:20:44.312Z,16.51
2022-08-08T00:23:20.292Z,16.46
2022-08-08T00:25:56.291Z,16.55
2022-08-08T00:28:39.337Z,16.55
2022-08-08T00:32:28.230Z,16.41
2022-08-08T00:35:08.228Z,16.48
2022-08-08T00:38:01.334Z,16.49
2022-08-08T00:41:10.766Z,16.33
2022-08-08T00:43:41.488Z,16.14
2022-08-08T00:46:20.991Z,16.18
2022-08-08T00:49:21.872Z,16.24
2022-08-08T00:52:20.023Z,16.07
2022-08-08T00:55:16.838Z,16.13
2022-08-08T00:58:15.303Z,16.10
2022-08-08T01:00:57.478Z,16.30
2022-08-08T01:04:01.012Z,16.27
2022-08-08T01:07:01.909Z,16.11
2022-08-08T01:09:55.639Z,16.04
2022-08-08T01:12:54.027Z,16.08
2022-08-08T01:15:57.835Z,16.13
2022-08-08T01:19:52.576Z,16.05
2022-08-08T01:22:40.819Z,15.90
2022-08-08T01:25:47.917Z,16.01
2022-08-08T01:28:41.322Z,15.93
2022-08-08T01:32:13.074Z,15.83
2022-08-08T01:34:55.806Z,15.86
2022-08-08T01:37:57.174Z,15.89
2022-08-08T01:40:53.455Z,15.77
2022-08-08T01:43:38.742Z,15.67
2022-08-08T01:46:39.900Z,15.66
2022-08-08T01:49:23.434Z,15.71
2022-08-08T01:52:43.661Z,15.55
2022-08-08T01:55:45.474Z,15.57
2022-08-08T01:58:46.919Z,15.55
2022-08-08T02:02:00.559Z,15.49
2022-08-08T02:04:59.260Z,15.37
2022-08-08T02:07:51.233Z,15.38
2022-08-08T02:10:45.141Z,15.36
2022-08-08T02:13:53.970Z,15.08
2022-08-08T02:16:28.495Z,15.16
2022-08-08T02:19:41.650Z,15.14
2022-08-08T02:22:31.860Z,15.15
2022-08-08T02:25:22.902Z,15.20
2022-08-08T02:28:09.233Z,15.17
2022-08-08T02:31:04.644Z,15.21
2022-08-08T02:34:15.128Z,15.15
2022-08-08T02:37:52.168Z,15.12
2022-08-08T02:41:59.204Z,14.84
2022-08-08T02:44:57.046Z,14.94
2022-08-08T02:47:47.099Z,14.88
2022-08-08T02:50:34.239Z,14.91
2022-08-08T02:53:22.460Z,14.84
2022-08-08T02:56:19.958Z,14.90
2022-08-08T02:58:49.780Z,14.86
2022-08-08T03:01:22.263Z,14.96
2022-08-08T03:05:03.121Z,14.88
2022-08-08T03:07:41.457Z,14.71
2022-08-08T03:10:44.783Z,14.79
2022-08-08T03:15:57.496Z,14.80
2022-08-08T03:16:55.322Z,14.67
2022-08-08T03:19:48.815Z,14.56
2022-08-08T03:22:38.233Z,14.56
2022-08-08T03:25:14.579Z,14.55
2022-08-08T03:27:56.607Z,14.50
2022-08-08T03:30:25.094Z,14.52
2022-08-08T03:33:55.337Z,14.48
2022-08-08T03:36:01.501Z,14.33
2022-08-08T03:38:57.202Z,14.34
2022-08-08T03:42:12.678Z,14.13
2022-08-08T03:44:04.349Z,14.23
2022-08-08T03:47:07.016Z,14.39
2022-08-08T03:49:59.718Z,14.25
2022-08-08T03:52:31.216Z,14.18
2022-08-08T03:55:09.763Z,14.21
2022-08-08T03:58:34.129Z,14.27
2022-08-08T04:00:27.356Z,14.06
2022-08-08T04:03:11.390Z,13.97
2022-08-08T04:05:47.148Z,13.97
2022-08-08T04:08:33.879Z,13.96
2022-08-08T04:11:11.374Z,13.95
2022-08-08T04:14:03.580Z,13.92
2022-08-08T04:16:40.104Z,13.87
2022-08-08T04:19:23.026Z,13.84
2022-08-08T04:21:51.250Z,13.99
2022-08-08T04:24:28.138Z,13.99
2022-08-08T04:26:58.663Z,14.05
2022-08-08T04:29:33.332Z,13.79
2022-08-08T04:32:07.186Z,13.87
2022-08-08T04:34:42.845Z,13.92
2022-08-08T04:37:16.564Z,13.90
2022-08-08T04:40:05.418Z,13.91
2022-08-08T04:42:34.848Z,13.83
2022-08-08T04:45:04.934Z,13.67
2022-08-08T04:47:32.201Z,13.81
2022-08-08T04:50:05.038Z,13.93
2022-08-08T04:52:35.824Z,13.98
2022-08-08T04:55:11.761Z,14.02
2022-08-08T04:57:38.234Z,13.96
2022-08-08T05:00:07.692Z,14.09
2022-08-08T05:02:36.909Z,14.22
2022-08-08T05:05:15.905Z,14.19
2022-08-08T05:07:47.971Z,14.19
2022-08-08T05:10:16.741Z,14.02
2022-08-08T05:13:00.312Z,14.16
2022-08-08T05:15:31.431Z,14.10
2022-08-08T05:18:18.130Z,14.08
2022-08-08T05:20:48.384Z,14.12
2022-08-08T05:23:16.913Z,14.04
2022-08-08T05:25:43.774Z,14.06
2022-08-08T05:28:14.823Z,14.18
2022-08-08T05:30:47.194Z,14.26
2022-08-08T05:33:16.850Z,14.34
2022-08-08T05:35:46.551Z,14.47
2022-08-08T05:38:31.459Z,14.60
2022-08-08T05:41:07.252Z,14.65
2022-08-08T05:44:02.249Z,14.75
2022-08-08T05:46:24.429Z,14.82
2022-08-08T05:48:54.384Z,14.87
2022-08-08T05:51:25.810Z,14.87
2022-08-08T05:54:27.387Z,14.85
2022-08-08T05:56:47.753Z,14.92
2022-08-08T05:59:59.552Z,14.86
2022-08-08T06:02:40.852Z,14.89
2022-08-08T06:05:33.772Z,15.11
2022-08-08T06:08:02.421Z,15.22
2022-08-08T06:10:39.365Z,15.32
2022-08-08T06:13:08.882Z,15.46
2022-08-08T06:15:50.172Z,15.46
2022-08-08T06:18:25.449Z,15.54
2022-08-08T06:20:58.145Z,15.56
2022-08-08T06:23:32.693Z,15.67
2022-08-08T06:26:43.125Z,15.77
2022-08-08T06:29:49.117Z,15.89
2022-08-08T06:32:10.082Z,15.93
2022-08-08T06:34:52.445Z,16.02
2022-08-08T06:37:38.349Z,16.15
2022-08-08T06:40:16.621Z,16.29
2022-08-08T06:43:09.551Z,16.45
2022-08-08T06:45:51.628Z,16.57
2022-08-08T06:48:19.486Z,16.70
2022-08-08T06:50:48.388Z,16.80
2022-08-08T06:53:20.585Z,16.94
2022-08-08T06:56:02.646Z,17.02
2022-08-08T06:58:33.610Z,17.17
2022-08-08T07:02:16.456Z,17.28
2022-08-08T07:04:36.997Z,17.39
2022-08-08T07:06:53.998Z,17.45
2022-08-08T07:09:27.205Z,17.54
2022-08-08T07:12:12.484Z,17.62
2022-08-08T07:15:00.884Z,17.70
2022-08-08T07:17:34.483Z,17.78
2022-08-08T07:20:28.262Z,17.88
2022-08-08T07:23:23.381Z,17.92
2022-08-08T07:25:54.515Z,18.05
2022-08-08T07:28:24.027Z,18.11
2022-08-08T07:30:59.633Z,18.22
2022-08-08T07:33:28.042Z,18.32
2022-08-08T07:36:08.246Z,18.39
2022-08-08T07:38:37.222Z,18.51
2022-08-08T07:41:08.846Z,18.50
2022-08-08T07:43:54.719Z,18.58
2022-08-08T07:46:30.146Z,18.77
2022-08-08T07:49:02.602Z,18.88
2022-08-08T07:51:45.186Z,18.96
2022-08-08T07:54:55.417Z,19.05
2022-08-08T07:57:48.663Z,19.16
2022-08-08T08:00:19.039Z,19.26
2022-08-08T08:03:07.164Z,19.37
2022-08-08T08:05:44.156Z,19.45
2022-08-08T08:08:21.369Z,19.51
2022-08-08T08:10:55.427Z,19.57
2022-08-08T08:13:42.183Z,19.60
2022-08-08T08:16:20.059Z,19.67
2022-08-08T08:19:05.008Z,19.74
2022-08-08T08:21:57.262Z,19.81
2022-08-08T08:24:42.783Z,19.89
2022-08-08T08:27:09.987Z,19.97
2022-08-08T08:29:42.470Z,20.03
2022-08-08T08:32:10.940Z,20.19
2022-08-08T08:34:43.087Z,20.22
2022-08-08T08:37:10.353Z,20.38
2022-08-08T08:40:01.258Z,20.49
2022-08-08T08:42:32.052Z,20.57
2022-08-08T08:45:20.752Z,20.73
2022-08-08T08:47:58.259Z,20.75
2022-08-08T08:50:33.282Z,20.82
2022-08-08T08:53:54.462Z,20.95
2022-08-08T08:56:01.263Z,21.02
2022-08-08T08:58:42.949Z,21.14
2022-08-08T09:01:15.594Z,21.22
2022-08-08T09:03:50.453Z,21.27
2022-08-08T09:06:34.174Z,21.42
2022-08-08T09:09:39.514Z,21.53
2022-08-08T09:12:27.424Z,21.63
2022-08-08T09:14:56.900Z,21.69
2022-08-08T09:17:31.513Z,21.78
2022-08-08T09:21:57.616Z,21.89
2022-08-08T09:22:59.019Z,21.98
2022-08-08T09:25:36.158Z,22.14
2022-08-08T09:28:13.481Z,22.15
2022-08-08T09:31:12.853Z,22.37
2022-08-08T09:34:15.115Z,22.46
2022-08-08T09:36:40.341Z,22.64
2022-08-08T09:39:21.666Z,22.77
2022-08-08T09:42:20.173Z,22.89
2022-08-08T09:45:15.516Z,23.14
2022-08-08T09:48:09.681Z,23.20
2022-08-08T09:50:34.429Z,23.30
2022-08-08T09:53:23.836Z,23.31
2022-08-08T09:56:04.439Z,23.41
2022-08-08T09:58:40.460Z,23.46
2022-08-08T10:01:15.382Z,23.64
2022-08-08T10:04:01.918Z,23.78
2022-08-08T10:06:32.368Z,23.96
2022-08-08T10:08:59.785Z,24.06
2022-08-08T10:12:25.893Z,24.07
2022-08-08T10:14:28.061Z,24.20
2022-08-08T10:17:02.466Z,24.49
2022-08-08T10:19:57.278Z,24.65
2022-08-08T10:22:26.684Z,24.74
2022-08-08T10:25:01.985Z,24.79
2022-08-08T10:27:34.227Z,24.96
2022-08-08T10:30:05.166Z,25.02
2022-08-08T10:32:35.360Z,25.10
2022-08-08T10:35:11.491Z,25.19
2022-08-08T10:37:55.673Z,25.16
2022-08-08T10:40:26.544Z,25.21
2022-08-08T10:43:05.120Z,25.36
2022-08-08T10:45:56.002Z,25.44
2022-08-08T10:48:57.794Z,25.30
2022-08-08T10:51:31.049Z,25.44
2022-08-08T10:53:59.796Z,25.58
2022-08-08T10:56:42.996Z,25.70
2022-08-08T10:59:12.267Z,25.70
2022-08-08T11:01:46.145Z,25.85
2022-08-08T11:04:16.166Z,25.96
2022-08-08T11:06:47.541Z,26.05
2022-08-08T11:09:21.224Z,26.04
2022-08-08T11:12:05.098Z,26.09
2022-08-08T11:14:51.731Z,26.19
2022-08-08T11:17:58.621Z,26.23
2022-08-08T11:20:12.805Z,26.27
2022-08-08T11:22:41.124Z,26.33
2022-08-08T11:25:14.168Z,26.42
2022-08-08T11:27:44.552Z,26.51
2022-08-08T11:30:24.286Z,26.51
2022-08-08T11:32:54.022Z,26.59
2022-08-08T11:35:27.957Z,26.64
2022-08-08T11:38:38.834Z,26.68
2022-08-08T11:40:53.390Z,26.74
2022-08-08T11:43:24.348Z,26.80
2022-08-08T11:46:17.637Z,26.83
2022-08-08T11:48:39.778Z,26.92
2022-08-08T11:51:39.235Z,27.01
2022-08-08T11:53:55.152Z,27.10
2022-08-08T11:56:35.482Z,27.13
2022-08-08T11:59:11.065Z,27.19
2022-08-08T12:01:38.596Z,27.16
2022-08-08T12:04:07.938Z,27.21
2022-08-08T12:06:34.640Z,27.26
2022-08-08T12:09:17.053Z,27.31
2022-08-08T12:11:46.022Z,27.17
2022-08-08T12:14:28.947Z,27.24
2022-08-08T12:16:57.101Z,27.30
2022-08-08T12:19:37.415Z,27.29
2022-08-08T12:22:13.500Z,27.36
2022-08-08T12:24:51.523Z,27.37
2022-08-08T12:27:22.452Z,27.31
2022-08-08T12:29:59.884Z,27.43
2022-08-08T12:32:31.351Z,27.46
2022-08-08T12:35:04.240Z,27.52
2022-08-08T12:37:41.541Z,27.47
2022-08-08T12:40:22.569Z,27.58
2022-08-08T12:42:51.843Z,27.56
2022-08-08T12:45:54.237Z,27.63
2022-08-08T12:48:36.005Z,27.67
2022-08-08T12:50:57.656Z,27.72
2022-08-08T12:53:37.582Z,27.71
2022-08-08T12:56:18.755Z,27.65
2022-08-08T12:58:50.592Z,27.66
2022-08-08T13:01:17.122Z,27.60
2022-08-08T13:03:55.956Z,27.67
2022-08-08T13:06:23.112Z,27.71
2022-08-08T13:08:53.210Z,27.77
2022-08-08T13:11:28.753Z,27.72
2022-08-08T13:14:12.793Z,27.63
2022-08-08T13:16:41.646Z,27.63
2022-08-08T13:19:14.024Z,27.68
2022-08-08T13:21:53.769Z,27.74
2022-08-08T13:24:42.406Z,27.72
2022-08-08T13:27:29.950Z,27.69
2022-08-08T13:30:04.708Z,27.62
2022-08-08T13:32:37.539Z,27.57
2022-08-08T13:35:24.483Z,27.62
2022-08-08T13:38:06.618Z,27.41
2022-08-08T13:40:35.660Z,27.38
2022-08-08T13:43:03.887Z,27.31
2022-08-08T13:45:31.283Z,27.27
2022-08-08T13:47:58.243Z,27.28
2022-08-08T13:50:35.590Z,27.28
2022-08-08T13:53:22.794Z,27.30
2022-08-08T13:56:02.570Z,27.33
2022-08-08T13:58:29.766Z,27.30
2022-08-08T14:00:56.624Z,27.29
2022-08-08T14:03:53.426Z,27.21
2022-08-08T14:06:32.583Z,27.19
2022-08-08T14:09:00.514Z,27.16
2022-08-08T14:11:47.810Z,27.14
2022-08-08T14:14:20.436Z,27.11
2022-08-08T14:16:50.698Z,27.06
2022-08-08T14:19:22.855Z,27.03
2022-08-08T14:22:13.391Z,26.96
2022-08-08T14:25:07.431Z,26.95
2022-08-08T14:27:35.725Z,26.87
2022-08-08T14:30:16.926Z,26.83
2022-08-08T14:32:53.260Z,26.79
2022-08-08T14:35:35.083Z,26.76
2022-08-08T14:38:09.414Z,26.79
2022-08-08T14:40:52.767Z,26.68
2022-08-08T14:44:01.897Z,26.68
2022-08-08T14:46:15.012Z,26.60
2022-08-08T14:48:57.065Z,26.59
2022-08-08T14:51:31.195Z,26.53
2022-08-08T14:54:14.078Z,26.44
2022-08-08T14:56:48.144Z,26.37
2022-08-08T14:59:31.369Z,26.30
2022-08-08T15:02:05.191Z,26.24
2022-08-08T15:04:35.165Z,26.25
2022-08-08T15:07:04.213Z,26.16
2022-08-08T15:09:30.873Z,26.11
2022-08-08T15:11:57.237Z,26.02
2022-08-08T15:14:26.857Z,25.95
2022-08-08T15:16:53.860Z,25.89
2022-08-08T15:19:21.136Z,25.87
2022-08-08T15:21:50.273Z,25.94
2022-08-08T15:24:16.926Z,25.90
2022-08-08T15:26:52.341Z,25.87
2022-08-08T15:29:22.529Z,25.96
2022-08-08T15:32:17.729Z,25.93
2022-08-08T15:34:37.606Z,25.79
2022-08-08T15:37:05.294Z,25.73
2022-08-08T15:39:37.895Z,25.72
2022-08-08T15:42:10.243Z,25.69
2022-08-08T15:44:37.733Z,25.70
2022-08-08T15:47:07.106Z,25.65
2022-08-08T15:49:42.737Z,25.65
2022-08-08T15:52:14.312Z,25.70
2022-08-08T15:54:42.084Z,25.65
2022-08-08T15:57:15.232Z,25.58
2022-08-08T16:00:06.512Z,25.53
2022-08-08T16:02:43.795Z,25.51
2022-08-08T16:05:17.401Z,25.43
2022-08-08T16:07:52.843Z,25.43
2022-08-08T16:13:15.033Z,25.39
2022-08-08T16:13:33.624Z,25.54
2022-08-08T16:15:58.268Z,25.49
2022-08-08T16:18:32.038Z,25.44
2022-08-08T16:20:59.925Z,25.44
2022-08-08T16:23:28.336Z,25.43
2022-08-08T16:26:04.178Z,25.42
2022-08-08T16:28:35.770Z,25.40
2022-08-08T16:31:07.696Z,25.38
2022-08-08T16:33:38.502Z,25.35
2022-08-08T16:36:05.708Z,25.31
2022-08-08T16:38:36.366Z,25.27
2022-08-08T16:41:20.043Z,25.32
2022-08-08T16:43:50.706Z,25.24
2022-08-08T16:46:39.306Z,25.21
2022-08-08T16:49:06.050Z,25.16
2022-08-08T16:55:02.371Z,25.17
2022-08-08T16:55:02.585Z,25.22
2022-08-08T16:57:23.500Z,25.16
2022-08-08T16:59:58.010Z,25.21
2022-08-08T17:02:32.839Z,25.18
2022-08-08T17:05:06.212Z,25.15
2022-08-08T17:07:32.614Z,25.19
2022-08-08T17:09:58.990Z,25.13
2022-08-08T17:12:28.619Z,25.12
2022-08-08T17:14:55.416Z,25.10
2022-08-08T17:18:01.336Z,25.13
2022-08-08T17:20:09.958Z,25.06
2022-08-08T17:22:42.195Z,25.04
2022-08-08T17:25:11.646Z,25.04
2022-08-08T17:27:46.425Z,25.01
2022-08-08T17:30:23.246Z,24.99
2022-08-08T17:34:37.063Z,24.96
2022-08-08T17:35:55.238Z,24.92
2022-08-08T17:38:28.651Z,24.91
2022-08-08T17:40:57.455Z,24.89
2022-08-08T17:43:23.862Z,24.87
2022-08-08T17:45:52.332Z,24.87
2022-08-08T17:48:29.152Z,24.84
2022-08-08T17:50:57.690Z,24.82
2022-08-08T17:53:43.250Z,24.78
2022-08-08T17:56:10.232Z,24.77
2022-08-08T17:58:38.756Z,24.74
2022-08-08T18:01:10.279Z,24.74
2022-08-08T18:03:37.640Z,24.71
2022-08-08T18:06:06.928Z,24.69
2022-08-08T18:08:48.623Z,24.71
2022-08-08T18:11:21.987Z,24.70
2022-08-08T18:13:48.403Z,24.70
2022-08-08T18:16:20.533Z,24.62
2022-08-08T18:18:52.793Z,24.61
2022-08-08T18:21:34.796Z,24.59
2022-08-08T18:24:17.518Z,24.52
2022-08-08T18:26:53.731Z,24.48
2022-08-08T18:29:27.290Z,24.44
2022-08-08T18:32:00.552Z,24.40
2022-08-08T18:34:30.374Z,24.32
2022-08-08T18:37:00.342Z,24.25
2022-08-08T18:39:28.292Z,24.11
2022-08-08T18:42:02.801Z,24.02
2022-08-08T18:44:32.903Z,23.92
2022-08-08T18:47:01.285Z,23.90
2022-08-08T18:49:32.390Z,23.78
2022-08-08T18:52:08.525Z,23.65
2022-08-08T18:54:44.623Z,23.52
2022-08-08T18:57:26.298Z,23.39
2022-08-08T18:59:52.956Z,23.34
2022-08-08T19:02:28.042Z,23.30
2022-08-08T19:04:56.016Z,23.30
2022-08-08T19:07:25.497Z,23.23
2022-08-08T19:10:14.281Z,23.12
2022-08-08T19:12:44.661Z,23.03
2022-08-08T19:15:16.649Z,23.01
2022-08-08T19:18:32.950Z,22.97
2022-08-08T19:20:37.918Z,22.91
2022-08-08T19:23:08.501Z,22.85
2022-08-08T19:26:26.866Z,22.80
2022-08-08T19:28:24.052Z,22.75
2022-08-08T19:31:03.918Z,22.68
2022-08-08T19:33:52.395Z,22.63
2022-08-08T19:36:27.614Z,22.58
2022-08-08T19:38:55.984Z,22.48
2022-08-08T19:41:27.292Z,22.34
2022-08-08T19:44:02.290Z,22.35
2022-08-08T19:46:33.180Z,22.28
2022-08-08T19:49:00.748Z,22.26
2022-08-08T19:51:34.843Z,22.28
2022-08-08T19:54:08.018Z,22.19
2022-08-08T19:56:40.782Z,22.17
2022-08-08T19:59:12.758Z,22.09
2022-08-08T20:02:01.750Z,22.15
2022-08-08T20:04:27.268Z,22.08
2022-08-08T20:06:53.674Z,22.12
2022-08-08T20:09:23.442Z,22.01
2022-08-08T20:11:50.538Z,21.96
2022-08-08T20:14:35.573Z,21.97
2022-08-08T20:17:04.037Z,21.99
2022-08-08T20:19:34.496Z,21.95
2022-08-08T20:22:13.157Z,22.00
2022-08-08T20:24:48.096Z,21.99
2022-08-08T20:27:20.017Z,21.97
2022-08-08T20:29:55.976Z,21.95
2022-08-08T20:32:28.169Z,21.97
2022-08-08T20:35:01.286Z,21.96
2022-08-08T20:37:46.743Z,21.86
2022-08-08T20:40:16.905Z,21.91
2022-08-08T20:42:54.779Z,21.95
2022-08-08T20:45:55.201Z,21.91
2022-08-08T20:48:08.442Z,21.93
2022-08-08T20:50:35.228Z,21.95
2022-08-08T20:53:02.133Z,21.86
2022-08-08T20:55:29.232Z,21.86
2022-08-08T20:58:02.439Z,21.86
2022-08-08T21:00:28.925Z,21.83
2022-08-08T21:02:56.812Z,21.82
2022-08-08T21:05:23.542Z,21.79
2022-08-08T21:08:33.348Z,21.76
2022-08-08T21:10:45.146Z,21.72
2022-08-08T21:13:11.592Z,21.70
2022-08-08T21:16:05.063Z,21.70
2022-08-08T21:18:24.789Z,21.66
2022-08-08T21:20:54.469Z,21.56
2022-08-08T21:23:58.607Z,21.60
2022-08-08T21:26:07.458Z,21.54
2022-08-08T21:28:36.131Z,21.54
2022-08-08T21:31:23.202Z,21.47
2022-08-08T21:33:51.074Z,21.42
2022-08-08T21:36:20.649Z,21.34
2022-08-08T21:38:48.123Z,21.34
2022-08-08T21:41:18.426Z,21.30
2022-08-08T21:44:01.073Z,21.26
2022-08-08T21:48:07.000Z,21.23
2022-08-08T21:49:16.695Z,21.12
2022-08-08T21:54:17.857Z,21.10
2022-08-08T21:54:54.106Z,21.06
2022-08-08T21:57:17.769Z,21.05
2022-08-08T22:00:02.368Z,20.93
2022-08-08T22:02:39.932Z,20.94
2022-08-08T22:05:09.570Z,20.93
2022-08-08T22:07:41.124Z,20.88
2022-08-08T22:10:18.382Z,20.79
2022-08-08T22:13:17.355Z,20.78
2022-08-08T22:15:58.542Z,20.66
2022-08-08T22:18:28.729Z,20.70
2022-08-08T22:20:57.559Z,20.65
2022-08-08T22:23:25.313Z,20.63
2022-08-08T22:26:27.816Z,20.54
2022-08-08T22:29:13.295Z,20.50
2022-08-08T22:31:29.541Z,20.44
2022-08-08T22:34:12.032Z,20.44
2022-08-08T22:36:42.762Z,20.35
2022-08-08T22:39:09.945Z,20.29
2022-08-08T22:41:45.459Z,20.26
2022-08-08T22:44:11.867Z,20.14
2022-08-08T22:46:39.960Z,20.12
2022-08-08T22:49:06.910Z,20.06
2022-08-08T22:51:42.388Z,20.05
2022-08-08T22:54:30.361Z,20.02
2022-08-08T22:56:59.490Z,19.99
2022-08-08T22:59:25.964Z,19.86
2022-08-08T23:02:02.216Z,19.96
2022-08-08T23:04:31.936Z,19.98
2022-08-08T23:07:03.147Z,19.80
2022-08-08T23:09:31.047Z,19.85
2022-08-08T23:12:17.760Z,19.78
2022-08-08T23:14:56.054Z,19.73
2022-08-08T23:17:30.131Z,19.52
2022-08-08T23:19:56.775Z,19.54
2022-08-08T23:22:23.169Z,19.65
2022-08-08T23:24:50.677Z,19.55
2022-08-08T23:27:37.522Z,19.48
2022-08-08T23:30:05.646Z,19.58
2022-08-08T23:32:36.214Z,19.53
2022-08-08T23:35:12.425Z,19.42
2022-08-08T23:38:03.276Z,19.49
2022-08-08T23:40:31.083Z,19.46
2022-08-08T23:42:57.695Z,19.40
2022-08-08T23:49:01.800Z,19.17
2022-08-08T23:49:04.185Z,19.42
2022-08-08T23:50:58.004Z,19.17
2022-08-08T23:54:05.610Z,19.09
2022-08-08T23:56:12.024Z,19.11
2022-08-08T23:58:38.806Z,19.17
